Time;durP1;ratioP1;P1;durP2;ratioP2;P2;SDS_P1;SDS_P2;PMS_P1;PMS_P2;Temp;Humidity;BMP_temperature;BMP_pressure;BME280_temperature;BME280_humidity;BME280_pressure;Samples;Min_cycle;Max_cycle;Signal;HPM_P1;HPM_P2
2023/03/06 00:00:09;;;;;;;11.17;10.07;;;;;;;3.45;94.12;99625.94;5039987;28;22337;-73
2023/03/06 00:02:34;;;;;;;12.57;11.27;;;;;;;3.45;94.26;99612.28;5038953;28;20186;-74
2023/03/06 00:04:59;;;;;;;12.07;10.87;;;;;;;3.45;94.51;99618.28;5042896;28;20183;-73
2023/03/06 00:07:24;;;;;;;12.87;11.50;;;;;;;3.43;94.54;99616.53;5043830;28;20195;-73
2023/03/06 00:09:50;;;;;;;12.03;10.77;;;;;;;3.42;94.70;99625.91;5042349;28;20942;-73
2023/03/06 00:12:15;;;;;;;12.07;10.63;;;;;;;3.42;94.56;99625.03;5042734;28;20247;-73
2023/03/06 00:14:40;;;;;;;11.67;10.47;;;;;;;3.42;94.88;99623.34;5041591;28;20179;-73
2023/03/06 00:17:06;;;;;;;13.70;11.77;;;;;;;3.42;95.10;99608.00;5042156;28;20198;-73
2023/03/06 00:19:31;;;;;;;12.60;11.40;;;;;;;3.41;95.13;99606.28;5046146;28;20709;-73
2023/03/06 00:21:56;;;;;;;12.60;11.20;;;;;;;3.39;95.03;99607.97;5037024;28;20190;-73
2023/03/06 00:24:21;;;;;;;13.10;11.47;;;;;;;3.39;95.29;99607.13;5042292;28;20187;-74
2023/03/06 00:26:47;;;;;;;12.10;10.90;;;;;;;3.39;95.36;99614.81;5041206;28;20256;-73
2023/03/06 00:29:12;;;;;;;12.40;11.10;;;;;;;3.38;95.56;99608.81;5040298;28;20843;-73
2023/03/06 00:31:37;;;;;;;12.43;11.23;;;;;;;3.39;95.63;99602.88;5038544;28;20218;-73
2023/03/06 00:34:03;;;;;;;12.47;11.03;;;;;;;3.40;95.79;99609.69;5040783;28;20291;-74
2023/03/06 00:36:28;;;;;;;11.97;10.77;;;;;;;3.41;95.58;99605.41;5041116;28;20191;-73
2023/03/06 00:38:53;;;;;;;11.90;10.70;;;;;;;3.42;95.57;99602.91;5037847;28;20215;-73
2023/03/06 00:41:19;;;;;;;11.60;10.40;;;;;;;3.44;95.65;99600.34;5040099;28;20190;-73
2023/03/06 00:43:45;;;;;;;11.80;10.60;;;;;;;3.45;95.53;99604.63;5037638;28;20582;-73
2023/03/06 00:46:10;;;;;;;11.60;10.50;;;;;;;3.45;95.74;99607.16;5031922;28;20221;-74
2023/03/06 00:48:35;;;;;;;12.67;11.30;;;;;;;3.45;95.81;99596.94;5035053;28;20211;-73
2023/03/06 00:51:01;;;;;;;11.47;10.37;;;;;;;3.44;95.63;99592.66;5039992;28;20207;-74
2023/03/06 00:53:26;;;;;;;11.90;10.70;;;;;;;3.42;95.77;99590.09;5042535;28;20539;-73
2023/03/06 00:55:51;;;;;;;12.43;11.10;;;;;;;3.40;95.77;99586.66;5043012;28;20203;-73
2023/03/06 00:58:17;;;;;;;12.17;10.87;;;;;;;3.39;95.77;99584.94;5040426;28;20221;-73
2023/03/06 01:00:43;;;;;;;12.70;11.40;;;;;;;3.40;95.75;99588.38;5040386;28;20182;-73
2023/03/06 01:03:09;;;;;;;12.63;11.43;;;;;;;3.40;95.73;99586.66;5040348;28;20206;-73
2023/03/06 01:05:36;;;;;;;12.93;11.63;;;;;;;3.41;95.76;99579.84;5042002;28;20393;-73
2023/03/06 01:08:02;;;;;;;12.87;11.57;;;;;;;3.41;95.81;99569.59;5035152;28;20211;-73
2023/03/06 01:10:27;;;;;;;13.13;11.83;;;;;;;3.39;95.70;99572.16;5040227;28;20223;-72
2023/03/06 01:12:53;;;;;;;12.50;11.20;;;;;;;3.39;95.74;99569.59;5038827;28;20580;-73
2023/03/06 01:15:20;;;;;;;12.17;10.97;;;;;;;3.39;95.90;99564.50;5041076;28;20179;-73
2023/03/06 01:17:46;;;;;;;12.47;11.17;;;;;;;3.38;95.66;99569.59;5041087;28;20198;-73
2023/03/06 01:20:15;;;;;;;14.90;12.43;;;;;;;3.36;95.94;99572.13;5042978;28;20186;-73
2023/03/06 01:22:41;;;;;;;13.60;12.13;;;;;;;3.34;95.87;99569.56;5043260;28;20812;-73
2023/03/06 01:25:07;;;;;;;12.30;10.93;;;;;;;3.34;96.03;99569.56;5042946;28;20195;-73
2023/03/06 01:27:32;;;;;;;12.77;11.47;;;;;;;3.33;96.17;99561.88;5043042;28;20216;-73
2023/03/06 01:29:57;;;;;;;12.80;11.20;;;;;;;3.33;96.10;99559.31;5038494;28;20230;-74
2023/03/06 01:32:23;;;;;;;13.57;12.10;;;;;;;3.33;96.07;99552.50;5041055;28;20600;-73
2023/03/06 01:34:48;;;;;;;13.17;11.80;;;;;;;3.32;96.08;99549.97;5039182;28;20565;-73
2023/03/06 01:37:13;;;;;;;12.03;10.73;;;;;;;3.32;96.13;99547.41;5041516;28;20199;-74
2023/03/06 01:39:39;;;;;;;11.73;10.53;;;;;;;3.31;96.03;99548.25;5042242;28;20210;-72
2023/03/06 01:42:04;;;;;;;12.07;10.80;;;;;;;3.30;96.13;99542.25;5039639;28;20260;-73
2023/03/06 01:44:30;;;;;;;11.07;9.93;;;;;;;3.31;96.22;99540.56;5041503;28;20198;-73
2023/03/06 01:46:55;;;;;;;11.00;9.90;;;;;;;3.31;96.26;99536.28;5037515;28;20199;-73
2023/03/06 01:49:28;;;;;;;11.30;10.20;;;;;;;3.33;96.26;99534.59;5037647;28;20213;-73
2023/03/06 01:52:05;;;;;;;11.40;10.20;;;;;;;3.29;96.18;99529.47;5034961;28;20271;-74
2023/03/06 01:54:38;;;;;;;12.03;10.83;;;;;;;3.25;96.07;99515.81;5038506;28;20184;-73
2023/03/06 01:57:18;;;;;;;11.07;9.97;;;;;;;3.22;96.07;99517.44;5042747;28;20671;-73
2023/03/06 01:59:47;;;;;;;11.07;9.97;;;;;;;3.20;96.17;99507.22;5042655;28;20214;-73
2023/03/06 02:02:14;;;;;;;11.10;10.00;;;;;;;3.17;96.26;99502.94;5041728;28;20187;-74
2023/03/06 02:04:41;;;;;;;11.13;10.00;;;;;;;3.16;96.31;99495.25;5040820;28;20186;-74
2023/03/06 02:07:08;;;;;;;10.87;9.87;;;;;;;3.15;96.40;99498.66;5040418;28;20194;-74
2023/03/06 02:09:34;;;;;;;11.63;9.57;;;;;;;3.13;96.34;99503.75;5040722;28;20202;-74
2023/03/06 02:12:09;;;;;;;11.00;9.90;;;;;;;3.14;96.43;99496.94;5039865;28;20226;-73
2023/03/06 02:14:34;;;;;;;10.77;9.50;;;;;;;3.14;96.58;99495.25;5037050;28;20186;-74
2023/03/06 02:17:00;;;;;;;12.40;9.97;;;;;;;3.15;96.71;99490.97;5039912;28;20201;-73
2023/03/06 02:19:43;;;;;;;11.97;10.77;;;;;;;3.15;96.63;99491.84;5041229;28;20206;-73
2023/03/06 02:22:08;;;;;;;10.90;9.73;;;;;;;3.15;96.54;99491.84;5038944;28;20187;-73
2023/03/06 02:24:44;;;;;;;10.53;9.47;;;;;;;3.14;96.90;99479.03;5042427;28;20561;-73
2023/03/06 02:27:11;;;;;;;12.40;10.57;;;;;;;3.12;96.49;99471.38;5051126;28;20671;-74
2023/03/06 02:29:37;;;;;;;9.73;8.73;;;;;;;3.11;96.64;99469.66;5042591;28;20214;-73
2023/03/06 02:32:03;;;;;;;11.30;10.20;;;;;;;3.12;96.63;99471.38;5035196;28;20195;-73
2023/03/06 02:34:28;;;;;;;10.87;9.77;;;;;;;3.11;96.73;99467.09;5035064;28;20284;-74
2023/03/06 02:37:01;;;;;;;10.93;9.83;;;;;;;3.13;96.85;99467.09;5043153;28;20730;-74
2023/03/06 02:39:30;;;;;;;10.77;9.67;;;;;;;3.13;97.20;99467.09;5038231;28;20231;-73
2023/03/06 02:41:55;;;;;;;10.77;9.70;;;;;;;3.13;97.02;99477.31;5037755;28;20191;-73
2023/03/06 02:44:22;;;;;;;11.10;10.00;;;;;;;3.14;97.08;99473.91;5038926;28;20188;-73
2023/03/06 02:46:47;;;;;;;11.10;10.00;;;;;;;3.14;97.10;99468.81;5041614;28;20191;-73
2023/03/06 02:49:12;;;;;;;11.63;10.13;;;;;;;3.14;97.21;99467.13;5041407;28;20217;-74
2023/03/06 02:51:38;;;;;;;12.00;10.60;;;;;;;3.15;97.04;99455.19;5042937;28;20203;-74
2023/03/06 02:54:03;;;;;;;11.83;10.60;;;;;;;3.15;97.09;99455.19;5041208;28;20187;-73
2023/03/06 02:56:28;;;;;;;11.27;10.17;;;;;;;3.13;97.23;99451.75;5040335;28;20191;-74
2023/03/06 02:58:54;;;;;;;10.37;9.37;;;;;;;3.14;97.08;99450.91;5039551;28;20305;-74
2023/03/06 03:01:19;;;;;;;11.20;10.20;;;;;;;3.14;97.29;99456.03;5042917;28;20183;-73
2023/03/06 03:03:44;;;;;;;10.83;9.73;;;;;;;3.14;97.31;99451.78;5055621;28;20290;-74
2023/03/06 03:06:10;;;;;;;10.57;9.57;;;;;;;3.14;97.49;99454.34;5042693;28;20359;-73
2023/03/06 03:08:36;;;;;;;10.17;9.17;;;;;;;3.14;97.47;99453.47;5042413;28;20245;-74
2023/03/06 03:11:02;;;;;;;11.97;10.50;;;;;;;3.14;97.67;99444.13;5043483;28;20218;-74
2023/03/06 03:13:28;;;;;;;11.10;10.00;;;;;;;3.14;97.67;99444.13;5042021;28;20199;-74
2023/03/06 03:16:05;;;;;;;11.13;10.03;;;;;;;3.15;97.73;99442.41;5043772;28;20187;-74
2023/03/06 03:18:31;;;;;;;11.53;10.33;;;;;;;3.13;97.67;99444.09;5042201;28;20217;-74
2023/03/06 03:20:57;;;;;;;11.40;10.30;;;;;;;3.11;97.56;99438.97;5040384;28;20191;-74
2023/03/06 03:23:23;;;;;;;11.77;10.60;;;;;;;3.11;97.42;99438.97;5045679;28;20301;-74
2023/03/06 03:25:49;;;;;;;12.77;11.17;;;;;;;3.10;97.53;99437.25;5039354;28;20246;-74
2023/03/06 03:28:15;;;;;;;13.00;11.60;;;;;;;3.10;97.41;99436.41;5047011;28;20758;-74
2023/03/06 03:30:41;;;;;;;10.83;9.73;;;;;;;3.11;97.37;99443.22;5045136;28;20203;-74
2023/03/06 03:33:07;;;;;;;11.67;10.47;;;;;;;3.10;97.56;99439.81;5044225;28;20186;-74
2023/03/06 03:35:32;;;;;;;11.27;10.17;;;;;;;3.11;97.57;99438.97;5047160;28;20194;-74
2023/03/06 03:37:57;;;;;;;15.30;13.57;;;;;;;3.09;97.38;99435.53;5046020;28;20218;-74
2023/03/06 03:40:23;;;;;;;12.47;11.27;;;;;;;3.07;97.56;99434.66;5040824;28;20179;-74
2023/03/06 03:42:48;;;;;;;10.90;9.87;;;;;;;3.08;97.61;99443.22;5044149;28;20195;-74
2023/03/06 03:45:13;;;;;;;11.03;9.90;;;;;;;3.09;97.67;99439.81;5045778;28;20293;-74
2023/03/06 03:47:39;;;;;;;13.37;12.10;;;;;;;3.09;97.69;99430.44;5045565;28;20186;-74
2023/03/06 03:50:05;;;;;;;13.70;12.30;;;;;;;3.08;97.74;99433.00;5040574;28;20217;-74
2023/03/06 03:52:31;;;;;;;13.47;12.13;;;;;;;3.08;97.69;99427.88;5046338;28;20186;-74
2023/03/06 03:54:56;;;;;;;14.00;12.53;;;;;;;3.07;97.72;99432.13;5043693;28;20198;-74
2023/03/06 03:57:21;;;;;;;13.97;12.50;;;;;;;3.06;97.19;99425.28;5040253;28;20215;-74
2023/03/06 03:59:46;;;;;;;16.27;14.67;;;;;;;3.04;97.62;99422.72;5037048;28;20214;-73
2023/03/06 04:02:13;;;;;;;17.87;16.27;;;;;;;3.01;97.55;99420.16;5037478;28;20897;-74
2023/03/06 04:04:39;;;;;;;17.83;16.23;;;;;;;3.02;97.66;99409.06;5040615;28;20218;-74
2023/03/06 04:07:04;;;;;;;15.93;14.53;;;;;;;3.02;97.74;99410.78;5039252;28;20190;-75
2023/03/06 04:09:30;;;;;;;14.13;12.87;;;;;;;3.00;97.66;99410.75;5039906;28;20233;-74
2023/03/06 04:11:55;;;;;;;14.03;12.60;;;;;;;2.99;97.78;99403.94;5037646;28;20229;-74
2023/03/06 04:14:20;;;;;;;13.53;12.23;;;;;;;3.01;97.91;99409.91;5042699;28;20320;-74
2023/03/06 04:16:46;;;;;;;12.53;11.30;;;;;;;3.01;98.00;99407.38;5042811;28;20273;-74
2023/03/06 04:19:11;;;;;;;11.63;10.43;;;;;;;3.02;98.21;99395.44;5042531;28;20703;-74
2023/03/06 04:21:36;;;;;;;13.07;11.77;;;;;;;3.01;98.09;99404.81;5040579;28;20183;-74
2023/03/06 04:24:02;;;;;;;12.60;11.33;;;;;;;3.01;98.12;99404.81;5056125;28;20220;-73
2023/03/06 04:26:27;;;;;;;11.60;10.50;;;;;;;3.01;98.26;99397.13;5039215;28;20187;-74
2023/03/06 04:28:54;;;;;;;12.23;10.93;;;;;;;3.00;98.25;99395.44;5040047;28;20219;-74
2023/03/06 04:31:19;;;;;;;12.23;10.93;;;;;;;3.00;98.38;99392.88;5041752;28;20703;-74
2023/03/06 04:33:45;;;;;;;12.17;10.90;;;;;;;3.00;98.23;99395.44;5042092;28;20194;-74
2023/03/06 04:36:23;;;;;;;12.27;11.00;;;;;;;3.01;98.24;99388.63;5038915;28;20273;-74
2023/03/06 04:38:48;;;;;;;13.37;11.47;;;;;;;3.01;98.36;99393.75;5042077;28;20225;-74
2023/03/06 04:41:14;;;;;;;13.33;11.83;;;;;;;3.00;98.19;99392.88;5042427;28;20179;-74
2023/03/06 04:43:39;;;;;;;14.07;12.57;;;;;;;3.00;98.08;99392.88;5043768;28;20225;-73
2023/03/06 04:46:04;;;;;;;14.47;12.23;;;;;;;2.99;98.08;99390.31;5042911;28;20674;-73
2023/03/06 04:48:30;;;;;;;15.03;13.10;;;;;;;2.98;97.97;99386.88;5041950;28;20902;-74
2023/03/06 04:50:55;;;;;;;14.43;13.00;;;;;;;2.98;98.05;99388.59;5037084;28;20220;-73
2023/03/06 04:53:20;;;;;;;14.13;12.73;;;;;;;2.98;97.94;99386.03;5039291;28;20196;-74
2023/03/06 04:55:46;;;;;;;13.47;12.07;;;;;;;2.97;98.01;99385.16;5040361;28;20229;-74
2023/03/06 04:58:13;;;;;;;13.67;12.27;;;;;;;2.98;97.98;99383.50;5040160;28;20218;-74
2023/03/06 05:00:38;;;;;;;12.63;11.33;;;;;;;2.98;97.97;99388.59;5042419;28;20226;-74
2023/03/06 05:03:03;;;;;;;15.90;13.83;;;;;;;3.00;97.86;99392.88;5038658;28;20222;-73
2023/03/06 05:05:29;;;;;;;14.43;12.93;;;;;;;2.99;97.89;99385.19;5038600;28;20190;-74
2023/03/06 05:07:54;;;;;;;14.43;12.93;;;;;;;2.98;97.95;99383.50;5040134;28;20226;-74
2023/03/06 05:10:20;;;;;;;14.53;12.97;;;;;;;2.95;97.80;99376.63;5040559;28;20221;-74
2023/03/06 05:12:46;;;;;;;13.93;12.43;;;;;;;2.94;98.21;99374.94;5041259;28;20190;-74
2023/03/06 05:15:11;;;;;;;15.27;13.20;;;;;;;2.94;98.30;99374.94;5041739;28;20248;-74
2023/03/06 05:17:37;;;;;;;13.50;11.77;;;;;;;2.94;98.37;99372.41;5042023;28;20190;-74
2023/03/06 05:20:08;;;;;;;13.60;12.30;;;;;;;2.92;98.34;99375.75;5038810;28;20202;-74
2023/03/06 05:22:33;;;;;;;14.23;12.67;;;;;;;2.92;98.77;99374.06;5054916;28;20187;-74
2023/03/06 05:24:59;;;;;;;13.47;12.03;;;;;;;2.92;98.48;99370.66;5043865;28;20202;-74
2023/03/06 05:27:25;;;;;;;14.20;12.37;;;;;;;2.93;98.44;99372.38;5038197;28;20190;-73
2023/03/06 05:29:50;;;;;;;14.47;12.53;;;;;;;2.92;98.43;99374.06;5040502;28;20318;-74
2023/03/06 05:32:16;;;;;;;14.80;12.80;;;;;;;2.91;98.64;99374.91;5043243;28;20687;-74
2023/03/06 05:34:41;;;;;;;14.73;12.53;;;;;;;2.92;98.42;99371.53;5043416;28;20209;-74
2023/03/06 05:37:07;;;;;;;15.90;13.40;;;;;;;2.92;98.66;99363.84;5040398;28;20179;-72
2023/03/06 05:39:32;;;;;;;14.90;13.40;;;;;;;2.93;98.71;99369.81;5041380;28;20919;-73
2023/03/06 05:41:57;;;;;;;16.07;13.93;;;;;;;2.91;98.69;99374.91;5034451;28;20240;-73
2023/03/06 05:44:23;;;;;;;15.93;13.57;;;;;;;2.92;98.59;99371.53;5037710;28;20205;-73
2023/03/06 05:46:49;;;;;;;15.03;13.43;;;;;;;2.92;98.69;99362.97;5043435;28;20799;-73
2023/03/06 05:49:15;;;;;;;15.57;13.87;;;;;;;2.91;98.77;99364.69;5043385;28;20199;-73
2023/03/06 05:51:40;;;;;;;14.83;13.13;;;;;;;2.92;98.85;99362.97;5041773;28;20221;-74
2023/03/06 05:54:06;;;;;;;15.60;13.67;;;;;;;2.93;98.99;99364.69;5040023;28;20388;-73
2023/03/06 05:56:31;;;;;;;14.93;13.33;;;;;;;2.93;98.89;99363.00;5039020;28;20240;-74
2023/03/06 05:58:56;;;;;;;15.27;13.43;;;;;;;2.92;99.07;99366.41;5040491;28;20984;-73
2023/03/06 06:01:24;;;;;;;17.97;14.30;;;;;;;2.94;99.05;99374.06;5037061;28;20183;-73
2023/03/06 06:03:49;;;;;;;14.97;13.37;;;;;;;2.94;98.88;99367.28;5039135;28;20186;-74
2023/03/06 06:06:14;;;;;;;15.10;13.37;;;;;;;2.93;99.07;99369.81;5042309;28;20193;-73
2023/03/06 06:08:40;;;;;;;14.83;13.33;;;;;;;2.93;99.17;99365.56;5042950;28;20198;-74
2023/03/06 06:11:08;;;;;;;15.17;13.53;;;;;;;2.94;99.03;99367.28;5040311;28;20194;-74
2023/03/06 06:13:35;;;;;;;14.63;13.03;;;;;;;2.96;99.12;99369.84;5058919;28;20246;-74
2023/03/06 06:16:05;;;;;;;17.37;13.90;;;;;;;2.97;99.01;99364.72;5042050;28;20183;-74
2023/03/06 06:18:31;;;;;;;17.00;14.63;;;;;;;2.98;98.98;99366.44;5036376;28;20696;-73
2023/03/06 06:20:56;;;;;;;16.27;14.57;;;;;;;3.00;98.92;99364.75;5040982;28;20194;-73
2023/03/06 06:23:21;;;;;;;15.63;13.63;;;;;;;2.99;98.97;99375.81;5042636;28;20321;-73
2023/03/06 06:25:47;;;;;;;17.93;14.47;;;;;;;3.01;98.95;99373.28;5042001;28;20580;-73
2023/03/06 06:28:12;;;;;;;16.53;14.73;;;;;;;3.02;98.98;99377.56;5042582;28;20671;-73
2023/03/06 06:30:37;;;;;;;20.13;14.13;;;;;;;3.04;98.92;99383.50;5038015;28;20293;-74
2023/03/06 06:33:03;;;;;;;18.73;15.10;;;;;;;3.05;98.87;99382.66;5039946;28;20899;-74
2023/03/06 06:35:28;;;;;;;17.67;15.60;;;;;;;3.08;98.89;99384.41;5044485;28;20662;-74
2023/03/06 06:37:53;;;;;;;19.97;16.13;;;;;;;3.10;98.97;99385.28;5037340;28;20615;-73
2023/03/06 06:40:20;;;;;;;16.47;14.73;;;;;;;3.11;98.94;99384.41;5045595;28;20208;-73
2023/03/06 06:42:45;;;;;;;20.53;15.20;;;;;;;3.11;99.05;99384.41;5043814;28;20273;-74
2023/03/06 06:45:12;;;;;;;19.47;14.53;;;;;;;3.14;98.83;99382.75;5043469;28;20269;-73
2023/03/06 06:47:40;;;;;;;19.03;15.00;;;;;;;3.16;98.92;99391.28;5044213;28;20187;-73
2023/03/06 06:50:07;;;;;;;21.93;15.47;;;;;;;3.18;98.93;99389.56;5041899;28;20211;-73
2023/03/06 06:52:32;;;;;;;18.00;15.27;;;;;;;3.21;98.74;99391.31;5044191;28;20211;-74
2023/03/06 06:54:58;;;;;;;18.60;14.97;;;;;;;3.23;98.76;99397.31;5042749;28;20697;-74
2023/03/06 06:57:23;;;;;;;18.67;16.30;;;;;;;3.25;98.61;99395.63;5042013;28;20248;-74
2023/03/06 06:59:48;;;;;;;17.30;15.43;;;;;;;3.27;98.82;99396.44;5053861;28;20272;-73
2023/03/06 07:02:15;;;;;;;19.03;15.07;;;;;;;3.30;98.68;99395.63;5055581;28;20560;-74
2023/03/06 07:04:40;;;;;;;17.97;15.50;;;;;;;3.33;98.71;99399.06;5045569;28;20655;-73
2023/03/06 07:07:06;;;;;;;18.70;16.10;;;;;;;3.37;98.88;99410.16;5043426;28;20187;-73
2023/03/06 07:09:31;;;;;;;17.73;15.67;;;;;;;3.40;98.70;99407.63;5043059;28;20714;-73
2023/03/06 07:11:57;;;;;;;18.90;16.20;;;;;;;3.44;98.69;99413.59;5045863;28;20231;-73
2023/03/06 07:14:22;;;;;;;21.50;17.90;;;;;;;3.45;98.59;99413.63;5043776;28;20273;-73
2023/03/06 07:16:47;;;;;;;25.87;17.20;;;;;;;3.47;98.82;99411.94;5043444;28;20205;-73
2023/03/06 07:19:13;;;;;;;18.00;15.63;;;;;;;3.49;98.93;99417.06;5045721;28;20211;-74
2023/03/06 07:21:38;;;;;;;18.37;15.20;;;;;;;3.51;99.03;99411.09;5040506;28;20203;-74
2023/03/06 07:24:04;;;;;;;18.50;15.53;;;;;;;3.53;98.98;99416.25;5037849;28;20194;-74
2023/03/06 07:26:29;;;;;;;17.47;15.60;;;;;;;3.54;99.17;99412.84;5042984;28;20756;-74
2023/03/06 07:28:55;;;;;;;18.53;16.03;;;;;;;3.57;99.26;99417.94;5046941;28;20236;-74
2023/03/06 07:31:23;;;;;;;18.47;15.07;;;;;;;3.62;99.30;99416.28;5043434;28;20713;-74
2023/03/06 07:33:50;;;;;;;19.37;16.50;;;;;;;3.68;99.17;99412.88;5044983;28;20767;-74
2023/03/06 07:36:16;;;;;;;19.77;17.00;;;;;;;3.72;98.98;99414.63;5039795;28;20279;-73
2023/03/06 07:38:41;;;;;;;18.67;16.63;;;;;;;3.74;98.90;99420.59;5036180;28;20290;-74
2023/03/06 07:41:12;;;;;;;20.13;16.57;;;;;;;3.78;98.97;99418.91;5042890;28;20617;-72
2023/03/06 07:43:38;;;;;;;21.53;17.27;;;;;;;3.82;98.88;99412.97;5046499;28;20191;-72
2023/03/06 07:46:03;;;;;;;18.20;16.10;;;;;;;3.84;98.89;99412.97;5039106;28;20214;-72
2023/03/06 07:48:29;;;;;;;19.90;16.70;;;;;;;3.89;98.86;99416.41;5041633;28;20586;-73
2023/03/06 07:50:59;;;;;;;18.17;16.30;;;;;;;3.93;98.91;99410.47;5040801;28;20210;-73
2023/03/06 07:53:24;;;;;;;19.83;16.43;;;;;;;3.96;99.05;99410.44;5047080;28;20789;-72
2023/03/06 07:55:50;;;;;;;19.50;16.33;;;;;;;4.01;99.04;99410.50;5043990;28;20188;-73
2023/03/06 07:58:15;;;;;;;18.17;16.10;;;;;;;4.05;99.21;99410.50;5043792;28;20233;-73
2023/03/06 08:00:41;;;;;;;18.83;15.50;;;;;;;4.11;99.03;99412.22;5043722;28;20179;-74
2023/03/06 08:03:08;;;;;;;18.37;16.37;;;;;;;4.14;99.09;99419.03;5043349;28;20187;-72
2023/03/06 08:05:34;;;;;;;19.43;17.33;;;;;;;4.15;98.83;99419.06;5043974;28;20187;-73
2023/03/06 08:07:59;;;;;;;18.80;16.60;;;;;;;4.13;98.75;99413.09;5046137;28;20589;-72
2023/03/06 08:10:24;;;;;;;17.43;15.63;;;;;;;4.12;98.91;99425.03;5043297;28;20215;-72
2023/03/06 08:12:50;;;;;;;18.07;15.80;;;;;;;4.14;99.34;99419.03;5044846;28;20679;-72
2023/03/06 08:15:15;;;;;;;18.77;16.70;;;;;;;4.20;99.35;99421.63;5040764;28;20274;-74
2023/03/06 08:17:40;;;;;;;18.03;16.20;;;;;;;4.22;99.12;99425.91;5045986;28;20672;-72
2023/03/06 08:20:07;;;;;;;17.20;15.27;;;;;;;4.24;99.14;99424.22;5046221;28;20199;-72
2023/03/06 08:22:33;;;;;;;18.53;16.50;;;;;;;4.26;98.86;99425.06;5046729;28;20663;-73
2023/03/06 08:24:58;;;;;;;18.83;15.63;;;;;;;4.29;98.75;99421.66;5060470;28;20678;-72
2023/03/06 08:27:24;;;;;;;18.27;15.73;;;;;;;4.27;98.88;99420.78;5046399;28;20191;-73
2023/03/06 08:29:49;;;;;;;16.30;14.70;;;;;;;4.27;98.84;99425.91;5045223;28;20203;-73
2023/03/06 08:32:14;;;;;;;17.80;15.97;;;;;;;4.32;98.87;99433.59;5044174;28;20245;-72
2023/03/06 08:34:41;;;;;;;17.00;15.20;;;;;;;4.34;98.59;99434.47;5045503;28;20633;-72
2023/03/06 08:37:06;;;;;;;15.63;14.03;;;;;;;4.35;98.67;99433.63;5044642;28;20216;-72
2023/03/06 08:39:31;;;;;;;16.30;14.70;;;;;;;4.38;98.67;99439.63;5039858;28;20249;-73
2023/03/06 08:41:57;;;;;;;15.13;13.57;;;;;;;4.44;98.53;99438.78;5044174;28;20301;-73
2023/03/06 08:44:22;;;;;;;14.60;13.10;;;;;;;4.48;98.60;99443.03;5043959;28;20191;-73
2023/03/06 08:46:47;;;;;;;15.00;13.50;;;;;;;4.56;98.43;99440.50;5044605;28;20623;-73
2023/03/06 08:49:13;;;;;;;14.07;12.67;;;;;;;4.63;98.36;99443.91;5041839;28;20222;-72
2023/03/06 08:51:38;;;;;;;15.80;14.20;;;;;;;4.70;98.06;99449.06;5045957;28;20298;-72
2023/03/06 08:54:04;;;;;;;15.43;13.83;;;;;;;4.72;97.76;99442.22;5041072;28;20548;-73
2023/03/06 08:56:31;;;;;;;14.27;12.80;;;;;;;4.79;97.75;99448.22;5044359;28;20197;-73
2023/03/06 08:58:59;;;;;;;15.13;13.57;;;;;;;4.90;97.55;99444.84;5036114;28;20309;-72
2023/03/06 09:01:27;;;;;;;15.47;13.80;;;;;;;4.96;96.92;99439.69;5041916;28;20603;-73
2023/03/06 09:03:55;;;;;;;15.13;13.53;;;;;;;5.01;96.72;99441.41;5039235;28;20580;-73
2023/03/06 09:06:21;;;;;;;16.17;14.30;;;;;;;5.10;96.51;99445.66;5041804;28;20181;-72
2023/03/06 09:08:49;;;;;;;15.77;14.23;;;;;;;5.16;95.61;99442.25;5043649;28;20207;-72
2023/03/06 09:11:14;;;;;;;16.40;14.73;;;;;;;5.17;95.20;99441.38;5040002;28;20811;-73
2023/03/06 09:13:41;;;;;;;15.33;13.83;;;;;;;5.22;95.31;99446.53;5051758;28;20257;-72
2023/03/06 09:16:08;;;;;;;17.20;15.40;;;;;;;5.28;95.00;99444.81;5034918;28;20327;-73
2023/03/06 09:18:34;;;;;;;15.80;14.20;;;;;;;5.29;94.25;99449.09;5032730;28;20216;-72
2023/03/06 09:20:59;;;;;;;15.77;14.17;;;;;;;5.30;94.33;99447.38;5035419;28;20207;-72
2023/03/06 09:23:25;;;;;;;15.50;13.97;;;;;;;5.33;94.33;99452.50;5042545;28;20682;-72
2023/03/06 09:25:54;;;;;;;14.83;13.33;;;;;;;5.36;94.16;99449.94;5043079;28;20922;-72
2023/03/06 09:28:20;;;;;;;16.10;14.40;;;;;;;5.40;94.08;99451.63;5041091;28;20734;-72
2023/03/06 09:30:45;;;;;;;17.30;14.50;;;;;;;5.40;93.93;99458.50;5043664;28;20224;-73
2023/03/06 09:33:11;;;;;;;15.27;13.77;;;;;;;5.43;93.53;99445.66;5041918;28;20236;-73
2023/03/06 09:35:46;;;;;;;16.30;14.57;;;;;;;5.44;93.18;99455.06;5039940;28;20230;-72
2023/03/06 09:38:11;;;;;;;15.63;14.03;;;;;;;5.46;92.79;99458.47;5039794;28;20229;-72
2023/03/06 09:40:39;;;;;;;14.43;13.13;;;;;;;5.55;92.71;99453.34;5040265;28;20192;-72
2023/03/06 09:43:05;;;;;;;14.67;13.17;;;;;;;5.67;92.36;99451.59;5037009;28;20197;-72
2023/03/06 09:45:35;;;;;;;14.93;13.43;;;;;;;5.77;91.53;99453.25;5040542;28;20192;-73
2023/03/06 09:48:09;;;;;;;15.43;13.33;;;;;;;5.84;91.17;99454.97;5041492;28;20260;-72
2023/03/06 09:50:44;;;;;;;14.07;12.57;;;;;;;5.93;91.03;99454.09;5040316;28;20641;-72
2023/03/06 09:53:51;;;;;;;13.87;12.47;;;;;;;6.04;90.71;99449.78;5036962;28;20909;-72
2023/03/06 09:56:20;;;;;;;14.50;13.10;;;;;;;6.12;90.15;99454.91;5019259;28;20574;-72
2023/03/06 09:58:50;;;;;;;15.27;13.13;;;;;;;6.16;89.77;99453.16;5036368;28;20220;-73
2023/03/06 10:01:23;;;;;;;14.50;13.10;;;;;;;6.22;89.29;99454.00;5039926;28;20552;-72
2023/03/06 10:04:11;;;;;;;15.03;13.43;;;;;;;6.26;88.98;99454.84;5039028;28;20237;-72
2023/03/06 10:06:49;;;;;;;16.30;13.33;;;;;;;6.29;88.15;99451.41;5035789;28;20653;-73
2023/03/06 10:09:25;;;;;;;15.83;14.27;;;;;;;6.30;87.32;99461.66;5042179;28;20247;-73
2023/03/06 10:11:55;;;;;;;15.83;13.47;;;;;;;6.33;87.14;99450.53;5035714;28;20216;-72
2023/03/06 10:14:43;;;;;;;14.67;13.23;;;;;;;6.43;87.11;99451.34;5058849;28;20193;-73
2023/03/06 10:17:16;;;;;;;14.30;12.90;;;;;;;6.59;86.98;99452.09;5054634;28;20200;-73
2023/03/06 10:19:41;;;;;;;14.77;13.30;;;;;;;6.75;86.43;99453.72;5042842;28;20225;-73
2023/03/06 10:22:33;;;;;;;15.47;13.87;;;;;;;6.92;85.21;99453.56;5047655;28;20177;-72
2023/03/06 10:25:50;;;;;;;14.60;13.10;;;;;;;7.10;84.68;99455.19;5044335;28;20179;-73
2023/03/06 10:28:20;;;;;;;14.60;13.10;;;;;;;7.26;84.40;99448.16;5040283;28;20249;-73
2023/03/06 10:30:55;;;;;;;13.20;12.00;;;;;;;7.42;84.19;99448.84;5043985;28;20295;-73
2023/03/06 10:33:47;;;;;;;12.93;11.53;;;;;;;7.65;83.86;99452.94;5039486;28;20224;-73
2023/03/06 10:36:18;;;;;;;11.93;10.80;;;;;;;7.83;83.23;99449.31;5043939;28;20194;-73
2023/03/06 10:38:47;;;;;;;12.30;11.07;;;;;;;7.93;82.87;99437.16;5041842;28;20602;-73
2023/03/06 10:41:12;;;;;;;13.07;11.87;;;;;;;8.07;81.86;99447.31;5044400;28;20948;-73
2023/03/06 10:43:41;;;;;;;13.03;11.83;;;;;;;8.13;81.56;99438.66;5042089;28;20183;-74
2023/03/06 10:46:09;;;;;;;14.53;13.07;;;;;;;8.22;81.40;99438.53;5039449;28;20199;-72
2023/03/06 10:48:37;;;;;;;14.83;13.33;;;;;;;8.24;80.70;99424.75;5043202;28;20210;-73
2023/03/06 10:51:16;;;;;;;13.77;12.40;;;;;;;8.17;80.24;99430.00;5039460;28;20210;-72
2023/03/06 10:53:52;;;;;;;12.77;11.57;;;;;;;8.14;80.80;99443.78;5044853;28;20274;-72
2023/03/06 10:56:33;;;;;;;13.00;11.90;;;;;;;8.13;80.98;99438.66;5044635;28;20198;-73
2023/03/06 10:59:04;;;;;;;12.60;11.40;;;;;;;8.10;80.42;99431.81;5041257;28;20701;-72
2023/03/06 11:01:30;;;;;;;13.50;12.20;;;;;;;8.04;80.44;99437.06;5042609;28;20179;-73
2023/03/06 11:04:15;;;;;;;12.27;11.17;;;;;;;8.08;80.63;99431.00;5044900;28;20199;-73
2023/03/06 11:06:41;;;;;;;13.10;11.87;;;;;;;8.18;80.54;99421.41;5039819;28;20614;-73
2023/03/06 11:09:17;;;;;;;13.80;12.47;;;;;;;8.27;79.96;99428.16;5043926;28;20211;-73
2023/03/06 11:11:43;;;;;;;15.30;13.80;;;;;;;8.37;79.11;99427.19;5036940;28;20264;-73
2023/03/06 11:14:17;;;;;;;14.27;12.87;;;;;;;8.53;78.23;99425.25;5054291;28;20208;-73
2023/03/06 11:16:52;;;;;;;12.27;11.17;;;;;;;8.64;78.16;99425.94;5034004;28;20746;-73
2023/03/06 11:19:25;;;;;;;12.07;10.87;;;;;;;8.78;78.05;99420.59;5033588;28;20202;-72
2023/03/06 11:22:03;;;;;;;12.23;11.13;;;;;;;8.93;77.80;99424.63;5045366;28;20569;-73
2023/03/06 11:24:36;;;;;;;13.83;12.53;;;;;;;8.99;76.69;99421.13;5045467;28;20197;-73
2023/03/06 11:27:17;;;;;;;13.73;12.53;;;;;;;8.91;76.19;99417.81;5047109;28;20213;-73